createdAt,value
2022-08-01T00:00:10.131Z,99575.77
2022-08-01T00:05:33.637Z,99570.16
2022-08-01T00:10:36.942Z,99567.69
2022-08-01T00:15:41.385Z,99570.86
2022-08-01T00:20:57.391Z,99571.89
2022-08-01T00:26:00.902Z,99566.91
2022-08-01T00:31:04.318Z,99572.69
2022-08-01T00:36:07.727Z,99569.56
2022-08-01T00:41:11.205Z,99571.31
2022-08-01T00:46:14.761Z,99573.53
2022-08-01T00:51:18.890Z,99569.50
2022-08-01T00:56:23.224Z,99568.38
2022-08-01T01:01:36.224Z,99564.27
2022-08-01T01:06:49.506Z,99565.23
2022-08-01T01:12:01.420Z,99567.73
2022-08-01T01:17:09.216Z,99571.43
2022-08-01T01:22:40.501Z,99569.08
2022-08-01T01:27:59.175Z,99562.65
2022-08-01T01:33:07.198Z,99557.60
2022-08-01T01:38:16.751Z,99561.05
2022-08-01T01:43:21.673Z,99561.58
2022-08-01T01:48:35.059Z,99555.42
2022-08-01T01:53:38.459Z,99556.65
2022-08-01T01:58:43.716Z,99560.77
2022-08-01T02:03:48.357Z,99559.60
2022-08-01T02:08:53.205Z,99557.23
2022-08-01T02:14:04.055Z,99554.25
2022-08-01T02:19:07.717Z,99556.89
2022-08-01T02:24:43.483Z,99555.66
2022-08-01T02:29:54.473Z,99559.77
2022-08-01T02:34:59.066Z,99564.23
2022-08-01T02:40:03.451Z,99567.88
2022-08-01T02:45:09.811Z,99573.83
2022-08-01T02:50:15.807Z,99572.59
2022-08-01T02:55:21.063Z,99575.52
2022-08-01T03:00:25.809Z,99577.98
2022-08-01T03:05:29.781Z,99581.52
2022-08-01T03:10:35.504Z,99589.52
2022-08-01T03:15:41.658Z,99581.40
2022-08-01T03:20:47.079Z,99578.21
2022-08-01T03:25:52.714Z,99577.40
2022-08-01T03:30:56.887Z,99576.42
2022-08-01T03:36:02.813Z,99585.09
2022-08-01T03:41:17.189Z,99588.55
2022-08-01T03:46:31.551Z,99587.34
2022-08-01T03:51:35.760Z,99595.14
2022-08-01T03:56:41.857Z,99598.54
2022-08-01T04:01:47.482Z,99600.14
2022-08-01T04:06:55.237Z,99603.78
2022-08-01T04:12:01.199Z,99606.69
2022-08-01T04:17:13.530Z,99606.09
2022-08-01T04:22:17.047Z,99606.27
2022-08-01T04:27:49.909Z,99610.88
2022-08-01T04:32:52.652Z,99610.41
2022-08-01T04:37:57.243Z,99608.11
2022-08-01T04:43:00.703Z,99610.64
2022-08-01T04:48:07.755Z,99610.36
2022-08-01T04:53:17.977Z,99610.88
2022-08-01T04:58:21.901Z,99616.34
2022-08-01T05:03:25.210Z,99625.09
2022-08-01T05:08:28.623Z,99624.94
2022-08-01T05:13:31.933Z,99625.59
2022-08-01T05:18:35.347Z,99632.05
2022-08-01T05:23:43.159Z,99637.95
2022-08-01T05:28:46.989Z,99634.85
2022-08-01T05:33:50.504Z,99637.53
2022-08-01T05:38:54.019Z,99645.09
2022-08-01T05:43:57.431Z,99650.58
2022-08-01T05:49:02.138Z,99646.08
2022-08-01T05:54:06.204Z,99647.45
2022-08-01T05:59:09.514Z,99645.61
2022-08-01T06:04:12.824Z,99647.92
2022-08-01T06:09:16.237Z,99653.19
2022-08-01T06:14:19.753Z,99657.30
2022-08-01T06:19:22.968Z,99659.71
2022-08-01T06:24:27.440Z,99655.75
2022-08-01T06:29:32.859Z,99658.02
2022-08-01T06:34:36.478Z,99658.41
2022-08-01T06:39:39.991Z,99661.21
2022-08-01T06:44:43.304Z,99660.89
2022-08-01T06:49:46.616Z,99658.13
2022-08-01T06:54:50.031Z,99660.18
2022-08-01T07:00:24.913Z,99662.75
2022-08-01T07:05:28.600Z,99671.59
2022-08-01T07:10:32.012Z,99674.46
2022-08-01T07:15:35.424Z,99674.93
2022-08-01T07:20:51.185Z,99673.96
2022-08-01T07:25:59.409Z,99673.05
2022-08-01T07:31:04.405Z,99673.20
2022-08-01T07:36:09.351Z,99672.48
2022-08-01T07:41:13.177Z,99668.77
2022-08-01T07:46:17.816Z,99662.09
2022-08-01T07:51:21.331Z,99668.05
2022-08-01T07:56:26.079Z,99668.02
2022-08-01T08:01:29.615Z,99672.39
2022-08-01T08:06:33.109Z,99671.67
2022-08-01T08:11:36.519Z,99678.85
2022-08-01T08:16:39.933Z,99679.39
2022-08-01T08:21:43.654Z,99682.69
2022-08-01T08:26:57.820Z,99685.17
2022-08-01T08:32:02.871Z,99682.79
2022-08-01T08:37:06.695Z,99682.45
2022-08-01T08:42:13.336Z,99691.87
2022-08-01T08:47:20.455Z,99693.08
2022-08-01T08:52:24.514Z,99695.65
2022-08-01T08:57:28.128Z,99698.88
2022-08-01T09:02:31.852Z,99702.83
2022-08-01T09:07:35.364Z,99700.80
2022-08-01T09:12:38.882Z,99709.09
2022-08-01T09:17:43.626Z,99705.98
2022-08-01T09:22:48.577Z,99701.34
2022-08-01T09:28:04.301Z,99709.27
2022-08-01T09:33:18.222Z,99711.45
2022-08-01T09:38:30.130Z,99710.52
2022-08-01T09:43:33.767Z,99713.92
2022-08-01T09:48:38.410Z,99720.70
2022-08-01T09:53:53.521Z,99718.70
2022-08-01T09:59:02.394Z,99723.61
2022-08-01T10:04:11.539Z,99722.80
2022-08-01T10:09:15.512Z,99730.02
2022-08-01T10:14:21.057Z,99730.95
2022-08-01T10:19:28.919Z,99731.12
2022-08-01T10:24:37.325Z,99735.72
2022-08-01T10:30:19.522Z,99735.14
2022-08-01T10:35:46.961Z,99726.31
2022-08-01T10:40:48.491Z,99723.23
2022-08-01T10:45:52.695Z,99729.41
2022-08-01T10:50:59.329Z,99722.83
2022-08-01T10:56:04.943Z,99721.04
2022-08-01T11:01:28.161Z,99719.11
2022-08-01T11:06:34.567Z,99718.93
2022-08-01T11:12:06.096Z,99715.91
2022-08-01T11:17:42.411Z,99715.08
2022-08-01T11:23:07.944Z,99716.61
2022-08-01T11:28:30.124Z,99713.02
2022-08-01T11:33:49.429Z,99713.50
2022-08-01T11:38:58.817Z,99708.09
2022-08-01T11:44:15.030Z,99710.89
2022-08-01T11:49:38.573Z,99709.80
2022-08-01T11:54:45.205Z,99706.15
2022-08-01T12:00:02.255Z,99703.59
2022-08-01T12:05:15.980Z,99710.41
2022-08-01T12:10:21.687Z,99711.81
2022-08-01T12:15:30.088Z,99710.58
2022-08-01T12:20:36.039Z,99709.05
2022-08-01T12:25:41.624Z,99705.37
2022-08-01T12:30:48.519Z,99704.59
2022-08-01T12:35:52.037Z,99704.25
2022-08-01T12:40:56.984Z,99707.61
2022-08-01T12:46:02.139Z,99709.06
2022-08-01T12:51:05.558Z,99705.05
2022-08-01T12:56:11.730Z,99707.02
2022-08-01T13:01:15.493Z,99716.52
2022-08-01T13:06:19.888Z,99711.84
2022-08-01T13:11:23.197Z,99715.77
2022-08-01T13:16:55.178Z,99710.47
2022-08-01T13:21:58.754Z,99709.66
2022-08-01T13:27:04.836Z,99713.35
2022-08-01T13:32:28.410Z,99706.98
2022-08-01T13:37:34.301Z,99713.08
2022-08-01T13:42:38.563Z,99716.66
2022-08-01T13:48:03.716Z,99713.71
2022-08-01T13:53:05.768Z,99716.05
2022-08-01T13:58:08.976Z,99718.77
2022-08-01T14:03:12.392Z,99721.71
2022-08-01T14:08:16.111Z,99726.77
2022-08-01T14:13:20.554Z,99737.20
2022-08-01T14:18:27.750Z,99745.24
2022-08-01T14:23:32.701Z,99747.02
2022-08-01T14:28:36.933Z,99751.16
2022-08-01T14:33:40.344Z,99752.41
2022-08-01T14:38:46.240Z,99753.48
2022-08-01T14:43:50.243Z,99754.82
2022-08-01T14:48:53.613Z,99760.27
2022-08-01T14:53:57.072Z,99759.77
2022-08-01T14:59:00.906Z,99760.46
2022-08-01T15:04:04.427Z,99746.77
2022-08-01T15:09:08.326Z,99733.13
2022-08-01T15:14:31.817Z,99745.96
2022-08-01T15:19:39.007Z,99752.69
2022-08-01T15:24:45.093Z,99765.81
2022-08-01T15:29:49.846Z,99756.83
2022-08-01T15:34:53.258Z,99747.88
2022-08-01T15:39:56.827Z,99747.73
2022-08-01T15:45:00.290Z,99757.69
2022-08-01T15:50:05.848Z,99745.39
2022-08-01T15:55:10.078Z,99727.95
2022-08-01T16:00:15.195Z,99731.09
2022-08-01T16:05:20.648Z,99724.52
2022-08-01T16:10:24.209Z,99727.10
2022-08-01T16:15:36.788Z,99731.55
2022-08-01T16:20:45.546Z,99737.23
2022-08-01T16:25:49.298Z,99744.69
2022-08-01T16:31:04.876Z,99741.40
2022-08-01T16:36:16.880Z,99740.85
2022-08-01T16:41:20.727Z,99740.79
2022-08-01T16:46:25.534Z,99744.95
2022-08-01T16:51:32.737Z,99743.38
2022-08-01T16:56:36.400Z,99742.61
2022-08-01T17:02:01.253Z,99749.52
2022-08-01T17:07:04.591Z,99753.63
2022-08-01T17:12:08.661Z,99759.48
2022-08-01T17:17:12.273Z,99755.11
2022-08-01T17:22:15.794Z,99757.21
2022-08-01T17:27:20.124Z,99757.25
2022-08-01T17:32:23.437Z,99763.08
2022-08-01T17:37:26.850Z,99767.92
2022-08-01T17:42:30.570Z,99770.02
2022-08-01T17:47:49.834Z,99780.35
2022-08-01T17:52:53.882Z,99783.06
2022-08-01T17:58:00.673Z,99792.34
2022-08-01T18:03:04.087Z,99794.36
2022-08-01T18:08:12.008Z,99798.15
2022-08-01T18:13:18.696Z,99795.29
2022-08-01T18:18:33.027Z,99794.02
2022-08-01T18:23:37.504Z,99799.83
2022-08-01T18:28:46.538Z,99803.11
2022-08-01T18:33:53.020Z,99801.70
2022-08-01T18:38:56.451Z,99804.27
2022-08-01T18:44:03.819Z,99817.61
2022-08-01T18:49:11.834Z,99820.75
2022-08-01T18:54:15.907Z,99830.00
2022-08-01T18:59:19.626Z,99835.62
2022-08-01T19:04:22.834Z,99842.74
2022-08-01T19:09:26.145Z,99849.77
2022-08-01T19:14:29.455Z,99856.03
2022-08-01T19:19:32.870Z,99858.48
2022-08-01T19:24:36.283Z,99862.56
2022-08-01T19:29:40.310Z,99865.16
2022-08-01T19:34:54.921Z,99865.29
2022-08-01T19:39:59.628Z,99865.09
2022-08-01T19:45:05.269Z,99859.34
2022-08-01T19:50:10.331Z,99868.61
2022-08-01T19:55:15.100Z,99868.86
2022-08-01T20:06:59.303Z,99863.98
2022-08-01T20:12:03.838Z,99862.52
2022-08-01T20:17:07.866Z,99865.79
2022-08-01T20:22:11.281Z,99868.34
2022-08-01T20:27:15.985Z,99864.09
2022-08-01T20:32:21.078Z,99858.11
2022-08-01T20:38:06.015Z,99861.48
2022-08-01T20:42:51.764Z,99860.58
2022-08-01T20:47:56.711Z,99860.61
2022-08-01T20:53:00.126Z,99863.30
2022-08-01T20:58:04.724Z,99865.14
2022-08-01T21:03:26.189Z,99869.54
2022-08-01T21:08:41.395Z,99865.64
2022-08-01T21:13:48.507Z,99863.33
2022-08-01T21:19:20.064Z,99864.40
2022-08-01T21:24:29.284Z,99864.21
2022-08-01T21:29:34.771Z,99864.69
2022-08-01T21:34:40.034Z,99869.23
2022-08-01T21:39:47.542Z,99874.21
2022-08-01T21:44:53.314Z,99876.82
2022-08-01T21:50:02.845Z,99881.68
2022-08-01T21:55:16.830Z,99883.70
2022-08-01T22:00:25.328Z,99888.75
2022-08-01T22:05:49.623Z,99889.09
2022-08-01T22:11:00.213Z,99888.98
2022-08-01T22:16:06.311Z,99888.51
2022-08-01T22:21:11.072Z,99891.11
2022-08-01T22:26:14.486Z,99891.80
2022-08-01T22:31:19.121Z,99896.59
2022-08-01T22:36:23.150Z,99892.98
2022-08-01T22:41:30.146Z,99902.41
2022-08-01T22:47:07.969Z,99911.63
2022-08-01T22:52:28.970Z,99914.23
2022-08-01T22:57:49.864Z,99913.08
2022-08-01T23:02:58.658Z,99912.66
2022-08-01T23:08:04.820Z,99911.27
2022-08-01T23:13:14.902Z,99914.76
2022-08-01T23:18:21.506Z,99917.20
2022-08-01T23:23:31.324Z,99918.17
2022-08-01T23:28:36.508Z,99919.56
2022-08-01T23:33:40.126Z,99921.11
2022-08-01T23:38:45.223Z,99918.61
2022-08-01T23:43:52.218Z,99916.77
2022-08-01T23:48:55.932Z,99920.27
2022-08-01T23:53:59.307Z,99919.67
2022-08-01T23:59:02.617Z,99920.84
